sensor_id;sensor_type;location;lat;lon;timestamp;temperature;humidity
5134;DHT22;2585;48.696;10.066;2024-02-23T00:01:10;6.90;63.70
5134;DHT22;2585;48.696;10.066;2024-02-23T00:03:38;6.50;72.80
5134;DHT22;2585;48.696;10.066;2024-02-23T00:06:06;6.10;90.30
5134;DHT22;2585;48.696;10.066;2024-02-23T00:08:33;5.80;91.80
5134;DHT22;2585;48.696;10.066;2024-02-23T00:11:00;5.60;92.40
5134;DHT22;2585;48.696;10.066;2024-02-23T00:13:26;5.20;92.40
5134;DHT22;2585;48.696;10.066;2024-02-23T00:15:53;4.90;92.60
5134;DHT22;2585;48.696;10.066;2024-02-23T00:18:20;4.70;92.70
5134;DHT22;2585;48.696;10.066;2024-02-23T00:20:47;4.50;92.80
5134;DHT22;2585;48.696;10.066;2024-02-23T00:23:14;4.30;92.70
5134;DHT22;2585;48.696;10.066;2024-02-23T00:25:42;4.30;93.00
5134;DHT22;2585;48.696;10.066;2024-02-23T00:28:08;4.10;93.10
5134;DHT22;2585;48.696;10.066;2024-02-23T00:30:35;4.10;93.20
5134;DHT22;2585;48.696;10.066;2024-02-23T00:33:03;4.00;93.20
5134;DHT22;2585;48.696;10.066;2024-02-23T00:35:30;4.10;93.30
5134;DHT22;2585;48.696;10.066;2024-02-23T00:37:57;4.00;93.30
5134;DHT22;2585;48.696;10.066;2024-02-23T00:40:25;4.00;93.40
5134;DHT22;2585;48.696;10.066;2024-02-23T00:42:51;4.00;93.40
5134;DHT22;2585;48.696;10.066;2024-02-23T00:45:18;4.00;93.40
5134;DHT22;2585;48.696;10.066;2024-02-23T00:47:45;4.10;93.50
5134;DHT22;2585;48.696;10.066;2024-02-23T00:50:15;4.10;93.30
5134;DHT22;2585;48.696;10.066;2024-02-23T00:52:42;4.10;93.20
5134;DHT22;2585;48.696;10.066;2024-02-23T00:55:09;4.10;93.20
5134;DHT22;2585;48.696;10.066;2024-02-23T00:57:36;4.10;93.20
5134;DHT22;2585;48.696;10.066;2024-02-23T01:00:03;4.10;93.30
5134;DHT22;2585;48.696;10.066;2024-02-23T01:02:36;4.10;93.30
5134;DHT22;2585;48.696;10.066;2024-02-23T01:05:04;4.10;93.40
5134;DHT22;2585;48.696;10.066;2024-02-23T01:07:31;4.10;93.30
5134;DHT22;2585;48.696;10.066;2024-02-23T01:09:59;4.10;93.20
5134;DHT22;2585;48.696;10.066;2024-02-23T01:12:26;4.10;93.10
5134;DHT22;2585;48.696;10.066;2024-02-23T01:14:53;4.10;93.00
5134;DHT22;2585;48.696;10.066;2024-02-23T01:17:20;4.10;92.80
5134;DHT22;2585;48.696;10.066;2024-02-23T01:19:47;4.10;92.70
5134;DHT22;2585;48.696;10.066;2024-02-23T01:22:14;4.10;92.90
5134;DHT22;2585;48.696;10.066;2024-02-23T01:24:41;4.10;93.00
5134;DHT22;2585;48.696;10.066;2024-02-23T01:27:08;4.10;93.20
5134;DHT22;2585;48.696;10.066;2024-02-23T01:29:35;4.10;93.20
5134;DHT22;2585;48.696;10.066;2024-02-23T01:32:02;4.00;93.10
5134;DHT22;2585;48.696;10.066;2024-02-23T01:34:29;4.00;93.20
5134;DHT22;2585;48.696;10.066;2024-02-23T01:36:56;4.00;93.30
5134;DHT22;2585;48.696;10.066;2024-02-23T01:39:23;4.00;93.30
5134;DHT22;2585;48.696;10.066;2024-02-23T01:41:49;4.00;93.30
5134;DHT22;2585;48.696;10.066;2024-02-23T01:44:16;4.00;93.20
5134;DHT22;2585;48.696;10.066;2024-02-23T01:46:44;4.00;93.10
5134;DHT22;2585;48.696;10.066;2024-02-23T01:49:11;4.00;93.10
5134;DHT22;2585;48.696;10.066;2024-02-23T01:51:38;4.00;93.20
5134;DHT22;2585;48.696;10.066;2024-02-23T01:54:07;4.00;93.20
5134;DHT22;2585;48.696;10.066;2024-02-23T01:56:35;4.00;93.20
5134;DHT22;2585;48.696;10.066;2024-02-23T01:59:03;4.00;93.30
5134;DHT22;2585;48.696;10.066;2024-02-23T02:01:31;3.90;93.20
5134;DHT22;2585;48.696;10.066;2024-02-23T02:03:58;3.90;93.10
5134;DHT22;2585;48.696;10.066;2024-02-23T02:06:25;3.90;93.20
5134;DHT22;2585;48.696;10.066;2024-02-23T02:08:53;3.90;93.20
5134;DHT22;2585;48.696;10.066;2024-02-23T02:11:20;3.90;93.30
5134;DHT22;2585;48.696;10.066;2024-02-23T02:13:47;3.90;93.30
5134;DHT22;2585;48.696;10.066;2024-02-23T02:16:14;3.80;93.20
5134;DHT22;2585;48.696;10.066;2024-02-23T02:18:41;3.90;93.10
5134;DHT22;2585;48.696;10.066;2024-02-23T02:21:07;3.90;93.00
5134;DHT22;2585;48.696;10.066;2024-02-23T02:23:34;3.90;92.90
5134;DHT22;2585;48.696;10.066;2024-02-23T02:26:04;3.90;92.90
5134;DHT22;2585;48.696;10.066;2024-02-23T02:28:31;3.90;92.50
5134;DHT22;2585;48.696;10.066;2024-02-23T02:30:58;4.00;92.40
5134;DHT22;2585;48.696;10.066;2024-02-23T02:33:24;3.90;92.10
5134;DHT22;2585;48.696;10.066;2024-02-23T02:35:51;3.90;92.00
5134;DHT22;2585;48.696;10.066;2024-02-23T02:38:18;4.00;91.50
5134;DHT22;2585;48.696;10.066;2024-02-23T02:40:45;4.00;90.50
5134;DHT22;2585;48.696;10.066;2024-02-23T02:43:12;4.10;88.30
5134;DHT22;2585;48.696;10.066;2024-02-23T02:45:39;4.00;89.00
5134;DHT22;2585;48.696;10.066;2024-02-23T02:48:06;3.90;88.40
5134;DHT22;2585;48.696;10.066;2024-02-23T02:50:33;4.00;88.50
5134;DHT22;2585;48.696;10.066;2024-02-23T02:53:00;4.00;87.60
5134;DHT22;2585;48.696;10.066;2024-02-23T02:55:27;4.00;84.70
5134;DHT22;2585;48.696;10.066;2024-02-23T02:57:54;4.00;85.60
5134;DHT22;2585;48.696;10.066;2024-02-23T03:00:20;3.90;87.50
5134;DHT22;2585;48.696;10.066;2024-02-23T03:02:47;3.90;89.10
5134;DHT22;2585;48.696;10.066;2024-02-23T03:05:14;3.90;87.20
5134;DHT22;2585;48.696;10.066;2024-02-23T03:07:41;3.90;86.50
5134;DHT22;2585;48.696;10.066;2024-02-23T03:10:08;3.90;85.20
5134;DHT22;2585;48.696;10.066;2024-02-23T03:12:35;3.90;86.10
5134;DHT22;2585;48.696;10.066;2024-02-23T03:15:02;3.90;87.10
5134;DHT22;2585;48.696;10.066;2024-02-23T03:17:29;3.90;86.40
5134;DHT22;2585;48.696;10.066;2024-02-23T03:19:57;3.90;85.50
5134;DHT22;2585;48.696;10.066;2024-02-23T03:22:24;3.90;82.90
5134;DHT22;2585;48.696;10.066;2024-02-23T03:24:51;4.00;78.70
5134;DHT22;2585;48.696;10.066;2024-02-23T03:27:19;4.00;72.80
5134;DHT22;2585;48.696;10.066;2024-02-23T03:29:46;4.00;53.80
5134;DHT22;2585;48.696;10.066;2024-02-23T03:32:13;4.00;45.80
5134;DHT22;2585;48.696;10.066;2024-02-23T03:34:40;3.90;39.10
5134;DHT22;2585;48.696;10.066;2024-02-23T03:37:07;3.90;31.90
5134;DHT22;2585;48.696;10.066;2024-02-23T03:39:34;3.90;43.60
5134;DHT22;2585;48.696;10.066;2024-02-23T03:42:00;3.90;47.10
5134;DHT22;2585;48.696;10.066;2024-02-23T03:44:27;3.90;37.90
5134;DHT22;2585;48.696;10.066;2024-02-23T03:46:54;3.80;60.70
5134;DHT22;2585;48.696;10.066;2024-02-23T03:49:21;3.80;59.30
5134;DHT22;2585;48.696;10.066;2024-02-23T03:51:48;3.80;64.20
5134;DHT22;2585;48.696;10.066;2024-02-23T03:54:15;3.80;68.50
5134;DHT22;2585;48.696;10.066;2024-02-23T03:56:42;3.80;65.00
5134;DHT22;2585;48.696;10.066;2024-02-23T03:59:09;3.80;62.50
5134;DHT22;2585;48.696;10.066;2024-02-23T04:01:39;3.80;62.50
5134;DHT22;2585;48.696;10.066;2024-02-23T04:04:06;3.70;66.10
5134;DHT22;2585;48.696;10.066;2024-02-23T04:06:34;3.70;69.60
5134;DHT22;2585;48.696;10.066;2024-02-23T04:09:01;3.70;71.20
5134;DHT22;2585;48.696;10.066;2024-02-23T04:11:32;3.70;72.40
5134;DHT22;2585;48.696;10.066;2024-02-23T04:13:59;3.70;70.80
5134;DHT22;2585;48.696;10.066;2024-02-23T04:16:27;3.70;70.20
5134;DHT22;2585;48.696;10.066;2024-02-23T04:18:54;3.60;72.20
5134;DHT22;2585;48.696;10.066;2024-02-23T04:21:23;3.60;72.40
5134;DHT22;2585;48.696;10.066;2024-02-23T04:23:50;3.60;73.80
5134;DHT22;2585;48.696;10.066;2024-02-23T04:26:16;3.60;74.30
5134;DHT22;2585;48.696;10.066;2024-02-23T04:28:43;3.60;75.30
5134;DHT22;2585;48.696;10.066;2024-02-23T04:31:10;3.60;76.90
5134;DHT22;2585;48.696;10.066;2024-02-23T04:33:37;3.60;77.10
5134;DHT22;2585;48.696;10.066;2024-02-23T04:36:05;3.60;78.90
5134;DHT22;2585;48.696;10.066;2024-02-23T04:38:33;3.50;81.50
5134;DHT22;2585;48.696;10.066;2024-02-23T04:41:04;3.50;83.50
5134;DHT22;2585;48.696;10.066;2024-02-23T04:43:32;3.50;84.60
5134;DHT22;2585;48.696;10.066;2024-02-23T04:45:58;3.50;84.20
5134;DHT22;2585;48.696;10.066;2024-02-23T04:48:25;3.50;85.30
5134;DHT22;2585;48.696;10.066;2024-02-23T04:50:52;3.40;86.30
5134;DHT22;2585;48.696;10.066;2024-02-23T04:53:19;3.40;86.50
5134;DHT22;2585;48.696;10.066;2024-02-23T04:55:46;3.40;87.40
5134;DHT22;2585;48.696;10.066;2024-02-23T04:58:13;3.40;88.20
5134;DHT22;2585;48.696;10.066;2024-02-23T05:00:41;3.30;88.50
5134;DHT22;2585;48.696;10.066;2024-02-23T05:03:07;3.30;88.90
5134;DHT22;2585;48.696;10.066;2024-02-23T05:05:38;3.30;89.40
5134;DHT22;2585;48.696;10.066;2024-02-23T05:08:06;3.30;89.90
5134;DHT22;2585;48.696;10.066;2024-02-23T05:10:33;3.30;90.10
5134;DHT22;2585;48.696;10.066;2024-02-23T05:13:00;3.20;90.40
5134;DHT22;2585;48.696;10.066;2024-02-23T05:15:26;3.20;90.50
5134;DHT22;2585;48.696;10.066;2024-02-23T05:17:53;3.20;90.70
5134;DHT22;2585;48.696;10.066;2024-02-23T05:20:20;3.20;90.80
5134;DHT22;2585;48.696;10.066;2024-02-23T05:22:47;3.20;90.80
5134;DHT22;2585;48.696;10.066;2024-02-23T05:25:14;3.20;90.80
5134;DHT22;2585;48.696;10.066;2024-02-23T05:27:41;3.20;90.90
5134;DHT22;2585;48.696;10.066;2024-02-23T05:30:09;3.10;90.80
5134;DHT22;2585;48.696;10.066;2024-02-23T05:32:37;3.20;91.00
5134;DHT22;2585;48.696;10.066;2024-02-23T05:35:04;3.10;90.90
5134;DHT22;2585;48.696;10.066;2024-02-23T05:37:31;3.10;91.10
5134;DHT22;2585;48.696;10.066;2024-02-23T05:39:58;3.10;91.20
5134;DHT22;2585;48.696;10.066;2024-02-23T05:42:26;3.10;91.40
5134;DHT22;2585;48.696;10.066;2024-02-23T05:44:53;3.00;91.30
5134;DHT22;2585;48.696;10.066;2024-02-23T05:47:20;3.10;91.20
5134;DHT22;2585;48.696;10.066;2024-02-23T05:49:48;3.10;91.00
5134;DHT22;2585;48.696;10.066;2024-02-23T05:52:15;3.00;91.10
5134;DHT22;2585;48.696;10.066;2024-02-23T05:54:42;3.00;91.10
5134;DHT22;2585;48.696;10.066;2024-02-23T05:57:08;3.00;91.30
5134;DHT22;2585;48.696;10.066;2024-02-23T05:59:35;2.90;91.40
5134;DHT22;2585;48.696;10.066;2024-02-23T06:02:02;2.90;91.50
5134;DHT22;2585;48.696;10.066;2024-02-23T06:04:29;2.90;91.70
5134;DHT22;2585;48.696;10.066;2024-02-23T06:06:56;2.90;91.90
5134;DHT22;2585;48.696;10.066;2024-02-23T06:09:23;2.90;92.10
5134;DHT22;2585;48.696;10.066;2024-02-23T06:11:50;2.90;92.20
5134;DHT22;2585;48.696;10.066;2024-02-23T06:14:17;3.00;92.40
5134;DHT22;2585;48.696;10.066;2024-02-23T06:16:44;3.00;92.50
5134;DHT22;2585;48.696;10.066;2024-02-23T06:19:11;2.90;92.50
5134;DHT22;2585;48.696;10.066;2024-02-23T06:21:38;2.90;92.50
5134;DHT22;2585;48.696;10.066;2024-02-23T06:24:05;2.90;92.60
5134;DHT22;2585;48.696;10.066;2024-02-23T06:26:35;2.80;92.50
5134;DHT22;2585;48.696;10.066;2024-02-23T06:29:02;2.70;92.50
5134;DHT22;2585;48.696;10.066;2024-02-23T06:31:30;2.70;92.60
5134;DHT22;2585;48.696;10.066;2024-02-23T06:33:57;2.70;92.60
5134;DHT22;2585;48.696;10.066;2024-02-23T06:36:24;2.70;92.70
5134;DHT22;2585;48.696;10.066;2024-02-23T06:38:51;2.70;92.80
5134;DHT22;2585;48.696;10.066;2024-02-23T06:41:18;2.70;92.90
5134;DHT22;2585;48.696;10.066;2024-02-23T06:43:45;2.70;93.00
5134;DHT22;2585;48.696;10.066;2024-02-23T06:46:11;2.70;93.00
5134;DHT22;2585;48.696;10.066;2024-02-23T06:48:39;2.70;93.00
5134;DHT22;2585;48.696;10.066;2024-02-23T06:51:06;2.70;93.10
5134;DHT22;2585;48.696;10.066;2024-02-23T06:53:37;2.60;93.10
5134;DHT22;2585;48.696;10.066;2024-02-23T06:56:05;2.60;93.10
5134;DHT22;2585;48.696;10.066;2024-02-23T06:58:31;2.60;93.20
5134;DHT22;2585;48.696;10.066;2024-02-23T07:00:58;2.60;93.20
5134;DHT22;2585;48.696;10.066;2024-02-23T07:03:26;2.60;93.20
5134;DHT22;2585;48.696;10.066;2024-02-23T07:05:53;2.60;93.30
5134;DHT22;2585;48.696;10.066;2024-02-23T07:08:20;2.70;93.40
5134;DHT22;2585;48.696;10.066;2024-02-23T07:10:47;2.70;93.50
5134;DHT22;2585;48.696;10.066;2024-02-23T07:13:14;2.80;93.50
5134;DHT22;2585;48.696;10.066;2024-02-23T07:15:41;2.80;93.50
5134;DHT22;2585;48.696;10.066;2024-02-23T07:18:08;2.80;93.50
5134;DHT22;2585;48.696;10.066;2024-02-23T07:20:36;2.90;93.50
5134;DHT22;2585;48.696;10.066;2024-02-23T07:23:04;2.90;93.50
5134;DHT22;2585;48.696;10.066;2024-02-23T07:25:32;2.90;93.30
5134;DHT22;2585;48.696;10.066;2024-02-23T07:27:58;2.90;93.10
5134;DHT22;2585;48.696;10.066;2024-02-23T07:30:25;3.00;93.10
5134;DHT22;2585;48.696;10.066;2024-02-23T07:32:52;3.10;93.20
5134;DHT22;2585;48.696;10.066;2024-02-23T07:35:19;3.10;93.10
5134;DHT22;2585;48.696;10.066;2024-02-23T07:37:47;3.10;93.00
5134;DHT22;2585;48.696;10.066;2024-02-23T07:40:14;3.20;92.90
5134;DHT22;2585;48.696;10.066;2024-02-23T07:42:45;3.10;92.70
5134;DHT22;2585;48.696;10.066;2024-02-23T07:45:12;3.20;92.60
5134;DHT22;2585;48.696;10.066;2024-02-23T07:47:39;3.20;92.40
5134;DHT22;2585;48.696;10.066;2024-02-23T07:50:06;3.30;92.40
5134;DHT22;2585;48.696;10.066;2024-02-23T07:52:34;3.30;92.20
5134;DHT22;2585;48.696;10.066;2024-02-23T07:55:01;3.30;92.10
5134;DHT22;2585;48.696;10.066;2024-02-23T07:57:32;3.30;92.10
5134;DHT22;2585;48.696;10.066;2024-02-23T07:59:59;3.30;92.30
5134;DHT22;2585;48.696;10.066;2024-02-23T08:02:26;3.40;92.30
5134;DHT22;2585;48.696;10.066;2024-02-23T08:04:53;3.40;92.30
5134;DHT22;2585;48.696;10.066;2024-02-23T08:07:20;3.40;92.30
5134;DHT22;2585;48.696;10.066;2024-02-23T08:09:47;3.40;92.30
5134;DHT22;2585;48.696;10.066;2024-02-23T08:12:14;3.40;92.40
5134;DHT22;2585;48.696;10.066;2024-02-23T08:14:43;3.50;92.40
5134;DHT22;2585;48.696;10.066;2024-02-23T08:17:10;3.50;92.50
5134;DHT22;2585;48.696;10.066;2024-02-23T08:19:37;3.60;92.60
5134;DHT22;2585;48.696;10.066;2024-02-23T08:22:04;3.60;92.70
5134;DHT22;2585;48.696;10.066;2024-02-23T08:24:31;3.60;92.60
5134;DHT22;2585;48.696;10.066;2024-02-23T08:26:58;3.60;92.50
5134;DHT22;2585;48.696;10.066;2024-02-23T08:29:26;3.60;92.50
5134;DHT22;2585;48.696;10.066;2024-02-23T08:31:53;3.60;92.60
5134;DHT22;2585;48.696;10.066;2024-02-23T08:34:20;3.60;92.60
5134;DHT22;2585;48.696;10.066;2024-02-23T08:36:47;3.60;92.40
5134;DHT22;2585;48.696;10.066;2024-02-23T08:39:14;3.70;92.40
5134;DHT22;2585;48.696;10.066;2024-02-23T08:41:41;3.70;92.00
5134;DHT22;2585;48.696;10.066;2024-02-23T08:44:08;3.70;91.90
5134;DHT22;2585;48.696;10.066;2024-02-23T08:46:35;3.70;92.00
5134;DHT22;2585;48.696;10.066;2024-02-23T08:49:01;3.70;92.20
5134;DHT22;2585;48.696;10.066;2024-02-23T08:51:28;3.60;91.90
5134;DHT22;2585;48.696;10.066;2024-02-23T08:53:55;3.70;91.90
5134;DHT22;2585;48.696;10.066;2024-02-23T08:56:26;3.70;91.70
5134;DHT22;2585;48.696;10.066;2024-02-23T08:58:53;3.80;91.50
5134;DHT22;2585;48.696;10.066;2024-02-23T09:01:20;3.80;91.20
5134;DHT22;2585;48.696;10.066;2024-02-23T09:03:47;3.80;91.20
5134;DHT22;2585;48.696;10.066;2024-02-23T09:06:14;3.80;91.10
5134;DHT22;2585;48.696;10.066;2024-02-23T09:08:41;3.90;90.90
5134;DHT22;2585;48.696;10.066;2024-02-23T09:11:08;3.90;91.00
5134;DHT22;2585;48.696;10.066;2024-02-23T09:13:35;4.00;91.40
5134;DHT22;2585;48.696;10.066;2024-02-23T09:16:02;4.00;90.60
5134;DHT22;2585;48.696;10.066;2024-02-23T09:18:29;4.00;90.50
5134;DHT22;2585;48.696;10.066;2024-02-23T09:20:56;4.00;88.60
5134;DHT22;2585;48.696;10.066;2024-02-23T09:23:23;4.00;86.50
5134;DHT22;2585;48.696;10.066;2024-02-23T09:25:50;4.00;84.30
5134;DHT22;2585;48.696;10.066;2024-02-23T09:28:17;4.00;83.40
5134;DHT22;2585;48.696;10.066;2024-02-23T09:30:44;3.90;81.30
5134;DHT22;2585;48.696;10.066;2024-02-23T09:33:11;3.90;82.40
5134;DHT22;2585;48.696;10.066;2024-02-23T09:35:38;3.90;83.20
5134;DHT22;2585;48.696;10.066;2024-02-23T09:38:05;3.90;82.40
5134;DHT22;2585;48.696;10.066;2024-02-23T09:40:32;3.90;77.80
5134;DHT22;2585;48.696;10.066;2024-02-23T09:42:59;4.00;80.70
5134;DHT22;2585;48.696;10.066;2024-02-23T09:45:26;4.00;81.20
5134;DHT22;2585;48.696;10.066;2024-02-23T09:47:54;4.10;84.30
5134;DHT22;2585;48.696;10.066;2024-02-23T09:50:23;4.20;82.50
5134;DHT22;2585;48.696;10.066;2024-02-23T09:52:51;4.20;79.80
5134;DHT22;2585;48.696;10.066;2024-02-23T09:55:18;4.10;75.70
5134;DHT22;2585;48.696;10.066;2024-02-23T09:57:48;4.20;80.80
5134;DHT22;2585;48.696;10.066;2024-02-23T10:00:16;4.20;80.00
5134;DHT22;2585;48.696;10.066;2024-02-23T10:02:43;4.20;78.20
5134;DHT22;2585;48.696;10.066;2024-02-23T10:05:11;4.30;81.90
5134;DHT22;2585;48.696;10.066;2024-02-23T10:07:39;4.20;74.80
5134;DHT22;2585;48.696;10.066;2024-02-23T10:10:08;4.30;76.90
5134;DHT22;2585;48.696;10.066;2024-02-23T10:12:35;4.40;79.90
5134;DHT22;2585;48.696;10.066;2024-02-23T10:15:03;4.40;75.80
5134;DHT22;2585;48.696;10.066;2024-02-23T10:17:33;4.30;69.70
5134;DHT22;2585;48.696;10.066;2024-02-23T10:20:02;4.30;71.40
5134;DHT22;2585;48.696;10.066;2024-02-23T10:22:32;4.30;68.40
5134;DHT22;2585;48.696;10.066;2024-02-23T10:24:59;4.40;74.40
5134;DHT22;2585;48.696;10.066;2024-02-23T10:27:26;4.40;71.60
5134;DHT22;2585;48.696;10.066;2024-02-23T10:29:54;4.40;62.70
5134;DHT22;2585;48.696;10.066;2024-02-23T10:32:23;4.40;61.00
5134;DHT22;2585;48.696;10.066;2024-02-23T10:34:52;4.40;60.70
5134;DHT22;2585;48.696;10.066;2024-02-23T10:37:21;4.30;39.50
5134;DHT22;2585;48.696;10.066;2024-02-23T10:39:50;4.30;31.80
5134;DHT22;2585;48.696;10.066;2024-02-23T10:42:23;4.30;25.20
5134;DHT22;2585;48.696;10.066;2024-02-23T10:44:52;4.40;16.20
5134;DHT22;2585;48.696;10.066;2024-02-23T10:47:20;4.40;1.00
5134;DHT22;2585;48.696;10.066;2024-02-23T10:49:48;4.40;1.00
5134;DHT22;2585;48.696;10.066;2024-02-23T10:52:15;4.40;1.00
5134;DHT22;2585;48.696;10.066;2024-02-23T10:54:46;4.50;1.00
5134;DHT22;2585;48.696;10.066;2024-02-23T10:57:13;4.60;1.00
5134;DHT22;2585;48.696;10.066;2024-02-23T10:59:47;4.50;1.00
5134;DHT22;2585;48.696;10.066;2024-02-23T11:02:19;4.60;1.00
5134;DHT22;2585;48.696;10.066;2024-02-23T11:04:48;4.60;1.00
5134;DHT22;2585;48.696;10.066;2024-02-23T11:07:19;4.60;1.00
5134;DHT22;2585;48.696;10.066;2024-02-23T11:09:55;4.60;1.00
5134;DHT22;2585;48.696;10.066;2024-02-23T11:12:26;4.60;93.90
5134;DHT22;2585;48.696;10.066;2024-02-23T11:15:00;4.50;88.10
5134;DHT22;2585;48.696;10.066;2024-02-23T11:17:29;4.60;1.00
5134;DHT22;2585;48.696;10.066;2024-02-23T11:19:57;4.60;92.50
5134;DHT22;2585;48.696;10.066;2024-02-23T11:22:30;4.60;79.80
5134;DHT22;2585;48.696;10.066;2024-02-23T11:25:08;4.60;68.50
5134;DHT22;2585;48.696;10.066;2024-02-23T11:27:37;4.60;94.90
5134;DHT22;2585;48.696;10.066;2024-02-23T11:30:08;4.70;1.00
5134;DHT22;2585;48.696;10.066;2024-02-23T11:35:11;4.70;90.10
5134;DHT22;2585;48.696;10.066;2024-02-23T11:37:49;4.80;90.50
5134;DHT22;2585;48.696;10.066;2024-02-23T11:40:23;4.80;1.00
5134;DHT22;2585;48.696;10.066;2024-02-23T11:42:51;4.80;1.00
5134;DHT22;2585;48.696;10.066;2024-02-23T11:45:18;4.70;1.00
5134;DHT22;2585;48.696;10.066;2024-02-23T11:47:45;4.70;1.00
5134;DHT22;2585;48.696;10.066;2024-02-23T11:50:12;4.80;1.00
5134;DHT22;2585;48.696;10.066;2024-02-23T11:52:39;4.80;1.00
5134;DHT22;2585;48.696;10.066;2024-02-23T11:55:07;4.80;1.00
5134;DHT22;2585;48.696;10.066;2024-02-23T11:57:35;4.80;77.40
5134;DHT22;2585;48.696;10.066;2024-02-23T12:00:14;4.70;85.10
5134;DHT22;2585;48.696;10.066;2024-02-23T12:02:43;4.60;68.20
5134;DHT22;2585;48.696;10.066;2024-02-23T12:05:11;4.60;1.00
5134;DHT22;2585;48.696;10.066;2024-02-23T12:07:38;4.60;1.00
5134;DHT22;2585;48.696;10.066;2024-02-23T12:10:05;4.70;1.00
5134;DHT22;2585;48.696;10.066;2024-02-23T12:12:32;4.70;1.00
5134;DHT22;2585;48.696;10.066;2024-02-23T12:15:00;4.70;1.00
5134;DHT22;2585;48.696;10.066;2024-02-23T12:17:27;4.70;83.00
5134;DHT22;2585;48.696;10.066;2024-02-23T12:20:01;4.70;1.00
5134;DHT22;2585;48.696;10.066;2024-02-23T12:22:28;4.90;72.50
5134;DHT22;2585;48.696;10.066;2024-02-23T12:24:59;5.00;77.20
5134;DHT22;2585;48.696;10.066;2024-02-23T12:27:26;5.00;37.80
5134;DHT22;2585;48.696;10.066;2024-02-23T12:29:54;5.00;81.70
5134;DHT22;2585;48.696;10.066;2024-02-23T12:32:21;4.90;62.40
5134;DHT22;2585;48.696;10.066;2024-02-23T12:34:48;4.80;71.30
5134;DHT22;2585;48.696;10.066;2024-02-23T12:37:16;4.90;76.30
5134;DHT22;2585;48.696;10.066;2024-02-23T12:39:44;4.90;1.00
5134;DHT22;2585;48.696;10.066;2024-02-23T12:42:11;5.00;26.20
5134;DHT22;2585;48.696;10.066;2024-02-23T12:44:38;5.10;91.10
5134;DHT22;2585;48.696;10.066;2024-02-23T12:47:05;5.00;1.00
5134;DHT22;2585;48.696;10.066;2024-02-23T12:49:32;5.10;49.90
5134;DHT22;2585;48.696;10.066;2024-02-23T12:51:59;5.10;1.00
5134;DHT22;2585;48.696;10.066;2024-02-23T12:54:25;5.10;90.70
5134;DHT22;2585;48.696;10.066;2024-02-23T12:56:52;5.00;67.30
5134;DHT22;2585;48.696;10.066;2024-02-23T12:59:19;5.00;1.00
5134;DHT22;2585;48.696;10.066;2024-02-23T13:01:46;5.10;1.00
5134;DHT22;2585;48.696;10.066;2024-02-23T13:04:17;5.00;1.00
5134;DHT22;2585;48.696;10.066;2024-02-23T13:06:44;5.00;1.00
5134;DHT22;2585;48.696;10.066;2024-02-23T13:09:11;5.10;1.00
5134;DHT22;2585;48.696;10.066;2024-02-23T13:11:39;5.00;1.00
5134;DHT22;2585;48.696;10.066;2024-02-23T13:14:06;5.00;94.00
5134;DHT22;2585;48.696;10.066;2024-02-23T13:16:33;5.10;1.00
5134;DHT22;2585;48.696;10.066;2024-02-23T13:19:00;5.10;86.10
5134;DHT22;2585;48.696;10.066;2024-02-23T13:21:27;5.10;30.90
5134;DHT22;2585;48.696;10.066;2024-02-23T13:23:55;5.10;1.00
5134;DHT22;2585;48.696;10.066;2024-02-23T13:26:21;5.00;62.80
5134;DHT22;2585;48.696;10.066;2024-02-23T13:28:48;5.10;1.00
5134;DHT22;2585;48.696;10.066;2024-02-23T13:31:15;5.20;90.50
5134;DHT22;2585;48.696;10.066;2024-02-23T13:33:43;5.20;81.80
5134;DHT22;2585;48.696;10.066;2024-02-23T13:36:12;5.20;1.00
5134;DHT22;2585;48.696;10.066;2024-02-23T13:38:38;5.30;79.70
5134;DHT22;2585;48.696;10.066;2024-02-23T13:41:06;5.20;14.80
5134;DHT22;2585;48.696;10.066;2024-02-23T13:43:33;5.30;62.60
5134;DHT22;2585;48.696;10.066;2024-02-23T13:46:00;5.20;1.00
5134;DHT22;2585;48.696;10.066;2024-02-23T13:48:30;5.30;1.00
5134;DHT22;2585;48.696;10.066;2024-02-23T13:50:57;5.40;1.00
5134;DHT22;2585;48.696;10.066;2024-02-23T13:53:30;5.40;1.00
5134;DHT22;2585;48.696;10.066;2024-02-23T13:55:58;5.60;1.00
5134;DHT22;2585;48.696;10.066;2024-02-23T13:58:27;5.50;93.80
5134;DHT22;2585;48.696;10.066;2024-02-23T14:00:55;5.50;1.00
5134;DHT22;2585;48.696;10.066;2024-02-23T14:03:22;5.70;87.00
5134;DHT22;2585;48.696;10.066;2024-02-23T14:05:50;5.60;92.10
5134;DHT22;2585;48.696;10.066;2024-02-23T14:08:17;5.60;1.00
5134;DHT22;2585;48.696;10.066;2024-02-23T14:10:44;5.50;91.00
5134;DHT22;2585;48.696;10.066;2024-02-23T14:13:12;5.50;1.00
5134;DHT22;2585;48.696;10.066;2024-02-23T14:15:39;5.40;1.00
5134;DHT22;2585;48.696;10.066;2024-02-23T14:18:06;5.40;91.00
5134;DHT22;2585;48.696;10.066;2024-02-23T14:20:33;5.50;94.70
5134;DHT22;2585;48.696;10.066;2024-02-23T14:23:00;5.40;1.00
5134;DHT22;2585;48.696;10.066;2024-02-23T14:25:27;5.40;69.30
5134;DHT22;2585;48.696;10.066;2024-02-23T14:27:53;5.40;73.00
5134;DHT22;2585;48.696;10.066;2024-02-23T14:30:22;5.30;63.00
5134;DHT22;2585;48.696;10.066;2024-02-23T14:32:49;5.20;24.50
5134;DHT22;2585;48.696;10.066;2024-02-23T14:35:16;5.30;22.20
5134;DHT22;2585;48.696;10.066;2024-02-23T14:37:43;5.30;60.30
5134;DHT22;2585;48.696;10.066;2024-02-23T14:40:10;5.20;41.00
5134;DHT22;2585;48.696;10.066;2024-02-23T14:42:38;5.20;81.30
5134;DHT22;2585;48.696;10.066;2024-02-23T14:45:07;5.20;58.90
5134;DHT22;2585;48.696;10.066;2024-02-23T14:47:34;5.30;91.70
5134;DHT22;2585;48.696;10.066;2024-02-23T14:50:11;5.30;81.60
5134;DHT22;2585;48.696;10.066;2024-02-23T14:52:38;5.30;1.00
5134;DHT22;2585;48.696;10.066;2024-02-23T14:55:05;5.30;52.90
5134;DHT22;2585;48.696;10.066;2024-02-23T14:57:32;5.30;92.20
5134;DHT22;2585;48.696;10.066;2024-02-23T14:59:59;5.30;93.90
5134;DHT22;2585;48.696;10.066;2024-02-23T15:02:26;5.30;92.90
5134;DHT22;2585;48.696;10.066;2024-02-23T15:04:53;5.20;91.60
5134;DHT22;2585;48.696;10.066;2024-02-23T15:07:20;5.10;74.30
5134;DHT22;2585;48.696;10.066;2024-02-23T15:09:46;5.20;82.70
5134;DHT22;2585;48.696;10.066;2024-02-23T15:12:14;5.20;1.00
5134;DHT22;2585;48.696;10.066;2024-02-23T15:14:41;5.30;1.00
5134;DHT22;2585;48.696;10.066;2024-02-23T15:17:08;5.20;93.10
5134;DHT22;2585;48.696;10.066;2024-02-23T15:19:35;5.20;62.60
5134;DHT22;2585;48.696;10.066;2024-02-23T15:22:02;5.20;73.60
5134;DHT22;2585;48.696;10.066;2024-02-23T15:24:29;5.20;91.60
5134;DHT22;2585;48.696;10.066;2024-02-23T15:26:55;5.10;1.00
5134;DHT22;2585;48.696;10.066;2024-02-23T15:29:22;5.10;2.00
5134;DHT22;2585;48.696;10.066;2024-02-23T15:31:49;5.10;1.00
5134;DHT22;2585;48.696;10.066;2024-02-23T15:34:16;5.10;36.60
5134;DHT22;2585;48.696;10.066;2024-02-23T15:36:43;5.00;82.20
5134;DHT22;2585;48.696;10.066;2024-02-23T15:39:10;5.10;92.50
5134;DHT22;2585;48.696;10.066;2024-02-23T15:41:38;5.00;1.00
5134;DHT22;2585;48.696;10.066;2024-02-23T15:44:05;5.00;1.00
5134;DHT22;2585;48.696;10.066;2024-02-23T15:46:32;5.00;87.00
5134;DHT22;2585;48.696;10.066;2024-02-23T15:48:59;5.00;1.00
5134;DHT22;2585;48.696;10.066;2024-02-23T15:51:26;5.00;1.00
5134;DHT22;2585;48.696;10.066;2024-02-23T15:54:12;5.00;1.00
5134;DHT22;2585;48.696;10.066;2024-02-23T15:56:40;5.00;42.50
5134;DHT22;2585;48.696;10.066;2024-02-23T15:59:08;5.00;81.70
5134;DHT22;2585;48.696;10.066;2024-02-23T16:01:36;5.00;1.00
5134;DHT22;2585;48.696;10.066;2024-02-23T16:04:04;4.90;1.00
5134;DHT22;2585;48.696;10.066;2024-02-23T16:06:31;4.90;1.00
5134;DHT22;2585;48.696;10.066;2024-02-23T16:09:01;4.90;60.30